This is the latest recevied weather packets stored in our database for station/object F4ACR-10. If no packets are shown the sender has not sent any weather packets the latest 10 day(s).
| Time | Temp. | Humidity | Pressure | Rain* | Wind** | Luminosity | Snow |
|---|---|---|---|---|---|---|---|
| 1787645664 | 22.78° C | 75% | 1013.5 hPa | - | - | - | - |
| 1787645064 | 25° C | 67% | 1013.4 hPa | - | - | - | - |
| 1787644464 | 24.44° C | 68% | 1013.4 hPa | - | - | - | - |
| 1787643864 | 23.89° C | 73% | 1013.3 hPa | - | - | - | - |
| 1787643263 | 24.44° C | 67% | 1013.1 hPa | - | - | - | - |
| 1787642663 | 20.56° C | 87% | 1013.3 hPa | - | - | - | - |
| 1787642063 | 21.67° C | 81% | 1013.3 hPa | - | - | - | - |
| 1787641463 | 21.11° C | 83% | 1013.1 hPa | - | - | - | - |
| 1787640862 | 18.33° C | 100% | 1013.2 hPa | - | - | - | - |
| 1787640262 | 18.89° C | 99% | 1013.1 hPa | - | - | - | - |
| 1787639662 | 18.89° C | 100% | 1012.9 hPa | - | - | - | - |
| 1787639062 | 18.33° C | 100% | 1012.8 hPa | - | - | - | - |
| 1787638462 | 18.33° C | 100% | 1012.7 hPa | - | - | - | - |
| 1787637861 | 18.33° C | 100% | 1012.7 hPa | - | - | - | - |
| 1787637261 | 18.33° C | 100% | 1012.5 hPa | - | - | - | - |
| 1787636661 | 18.33° C | 100% | 1012.7 hPa | - | - | - | - |
| 1787636061 | 18.33° C | 100% | 1012.7 hPa | - | - | - | - |
| 1787635460 | 18.33° C | 100% | 1012.7 hPa | - | - | - | - |
| 1787634860 | 18.33° C | 100% | 1012.8 hPa | - | - | - | - |
| 1787634260 | 18.33° C | 100% | 1012.7 hPa | - | - | - | - |
| 1787633660 | 18.89° C | 100% | 1012.6 hPa | - | - | - | - |
| 1787633060 | 18.89° C | 98% | 1012.6 hPa | - | - | - | - |
| 1787632459 | 18.89° C | 96% | 1012.5 hPa | - | - | - | - |
| 1787631859 | 19.44° C | 94% | 1012.6 hPa | - | - | - | - |
| 1787631258 | 19.44° C | 92% | 1012.5 hPa | - | - | - | - |
* Rain since midnight (hover to see other rain measurements)
** Current wind speed in m/s (hover to see current wind gust speed)